Time;durP1;ratioP1;P1;durP2;ratioP2;P2;SDS_P1;SDS_P2;PMS_P1;PMS_P2;Temp;Humidity;BMP_temperature;BMP_pressure;BME280_temperature;BME280_humidity;BME280_pressure;Samples;Min_cycle;Max_cycle;Signal;HPM_P1;HPM_P2
2021/07/22 00:01:50;;;;;;;12.45;8.57;;;;;;;20.59;100.00;96737.16;5035349;28;20223;-58
2021/07/22 00:04:19;;;;;;;16.48;9.40;;;;;;;20.25;100.00;96737.19;5038190;28;20516;-55
2021/07/22 00:06:48;;;;;;;12.10;9.27;;;;;;;20.61;100.00;96737.78;5031443;28;20101;-55
2021/07/22 00:09:17;;;;;;;15.60;9.43;;;;;;;20.79;100.00;96729.19;5041907;28;20068;-55
2021/07/22 00:11:46;;;;;;;16.08;10.05;;;;;;;21.08;100.00;96732.53;5035522;28;20152;-58
2021/07/22 00:14:15;;;;;;;13.20;9.13;;;;;;;21.12;100.00;96728.41;5037609;28;20060;-58
2021/07/22 00:16:45;;;;;;;12.40;9.45;;;;;;;20.72;100.00;96724.84;5038481;28;20107;-58
2021/07/22 00:19:14;;;;;;;12.93;9.63;;;;;;;20.61;100.00;96732.44;5043394;28;20614;-55
2021/07/22 00:21:42;;;;;;;13.20;9.82;;;;;;;20.58;100.00;96732.81;5042013;28;20072;-58
2021/07/22 00:24:12;;;;;;;14.35;9.07;;;;;;;20.10;100.00;96723.94;5037205;28;20068;-54
2021/07/22 00:26:40;;;;;;;11.77;8.35;;;;;;;20.44;100.00;96731.09;5045880;28;24109;-56
2021/07/22 00:29:08;;;;;;;13.10;8.20;;;;;;;19.79;100.00;96729.72;5045506;28;20519;-54
2021/07/22 00:31:37;;;;;;;8.85;7.40;;;;;;;19.58;100.00;96726.06;5041856;28;20072;-57
2021/07/22 00:34:05;;;;;;;9.57;7.13;;;;;;;19.73;100.00;96725.97;5043209;28;20060;-57
2021/07/22 00:36:33;;;;;;;11.77;8.25;;;;;;;19.29;100.00;96732.38;5038698;28;20061;-56
2021/07/22 00:39:02;;;;;;;13.38;8.60;;;;;;;19.69;100.00;96722.03;5040609;28;20076;-52
2021/07/22 00:41:32;;;;;;;13.88;9.88;;;;;;;19.67;100.00;96724.06;5047519;28;20076;-55
2021/07/22 00:44:02;;;;;;;13.63;8.80;;;;;;;19.61;100.00;96727.47;5040328;28;20085;-51
2021/07/22 00:46:31;;;;;;;11.50;8.70;;;;;;;20.28;100.00;96729.56;5039000;28;20072;-53
2021/07/22 00:48:59;;;;;;;13.70;9.23;;;;;;;19.89;100.00;96730.19;5037826;28;20072;-58
2021/07/22 00:51:28;;;;;;;13.70;9.25;;;;;;;19.51;100.00;96733.19;5042509;28;20562;-56
2021/07/22 00:53:56;;;;;;;16.83;10.75;;;;;;;19.80;100.00;96726.84;5046034;28;20069;-54
2021/07/22 00:56:24;;;;;;;13.73;8.85;;;;;;;19.96;100.00;96725.72;5042015;28;20088;-51
2021/07/22 00:58:54;;;;;;;16.85;10.68;;;;;;;20.00;100.00;96726.16;5038590;28;20092;-56
2021/07/22 01:01:22;;;;;;;13.75;9.85;;;;;;;20.17;100.00;96723.97;5039114;28;20061;-54
2021/07/22 01:03:51;;;;;;;13.82;9.88;;;;;;;19.58;100.00;96726.06;5042854;28;20076;-53
2021/07/22 01:06:19;;;;;;;12.38;8.68;;;;;;;19.38;100.00;96725.06;5036423;28;20453;-54
2021/07/22 01:08:48;;;;;;;15.20;10.27;;;;;;;19.62;100.00;96719.28;5035383;28;20095;-54
2021/07/22 01:11:16;;;;;;;13.63;9.57;;;;;;;19.60;100.00;96723.16;5047271;28;20092;-55
2021/07/22 01:13:44;;;;;;;13.88;8.90;;;;;;;20.08;100.00;96724.13;5040333;28;20807;-55
2021/07/22 01:16:15;;;;;;;15.23;10.57;;;;;;;20.13;100.00;96718.16;5045737;28;20060;-57
2021/07/22 01:18:43;;;;;;;16.27;10.57;;;;;;;20.10;100.00;96713.22;5043089;28;20530;-58
2021/07/22 01:21:14;;;;;;;16.75;11.98;;;;;;;20.15;100.00;96719.63;5046449;28;20063;-57
2021/07/22 01:23:42;;;;;;;17.88;12.23;;;;;;;19.64;100.00;96716.44;5044069;28;20099;-57
2021/07/22 01:26:11;;;;;;;18.10;11.13;;;;;;;19.75;100.00;96720.41;5043724;28;20402;-54
2021/07/22 01:28:40;;;;;;;16.83;11.10;;;;;;;20.14;100.00;96715.28;5043524;28;20040;-56
2021/07/22 01:31:08;;;;;;;14.95;10.05;;;;;;;19.89;100.00;96722.16;5044157;28;20068;-56
2021/07/22 01:33:37;;;;;;;18.77;10.35;;;;;;;19.64;100.00;96716.44;5041812;28;20068;-54
2021/07/22 01:36:05;;;;;;;13.77;9.70;;;;;;;19.50;100.00;96715.47;5042347;28;20037;-54
2021/07/22 01:38:35;;;;;;;16.60;10.75;;;;;;;19.72;100.00;96712.75;5040611;28;20304;-53
2021/07/22 01:41:04;;;;;;;17.05;11.40;;;;;;;19.35;100.00;96717.44;5039919;28;20073;-53
2021/07/22 01:43:33;;;;;;;17.35;11.57;;;;;;;19.86;100.00;96712.69;5040395;28;20421;-55
2021/07/22 01:46:01;;;;;;;17.23;11.80;;;;;;;19.69;100.00;96716.69;5025756;28;20072;-56
2021/07/22 01:48:29;;;;;;;17.05;11.27;;;;;;;19.41;100.00;96717.47;5037257;28;20448;-58
2021/07/22 01:50:58;;;;;;;17.08;12.10;;;;;;;19.71;100.00;96711.94;5038379;28;20057;-56
2021/07/22 01:53:26;;;;;;;17.52;12.05;;;;;;;19.43;100.00;96733.31;5040740;28;20103;-52
2021/07/22 01:55:56;;;;;;;16.83;11.82;;;;;;;19.69;100.00;96716.69;5041688;28;20447;-53
2021/07/22 01:58:24;;;;;;;17.50;12.57;;;;;;;20.11;100.00;96712.19;5038043;28;20069;-53
2021/07/22 02:00:53;;;;;;;15.85;11.70;;;;;;;19.75;100.00;96715.91;5042448;28;20037;-54
2021/07/22 02:03:21;;;;;;;16.80;11.98;;;;;;;19.44;100.00;96717.09;5039623;28;20069;-56
2021/07/22 02:05:50;;;;;;;17.35;11.93;;;;;;;19.05;100.00;96720.25;5037529;28;20076;-56
2021/07/22 02:08:18;;;;;;;17.00;12.27;;;;;;;18.78;100.00;96713.81;5038746;28;20503;-57
2021/07/22 02:10:47;;;;;;;17.92;10.80;;;;;;;19.01;100.00;96705.59;5043873;28;20327;-54
2021/07/22 02:13:16;;;;;;;17.70;11.38;;;;;;;19.49;100.00;96708.47;5039649;28;20424;-58
2021/07/22 02:15:45;;;;;;;16.65;11.60;;;;;;;18.83;100.00;96711.41;5035032;28;20069;-58
2021/07/22 02:18:13;;;;;;;16.15;10.82;;;;;;;19.65;100.00;96707.41;5044233;28;20065;-57
2021/07/22 02:20:42;;;;;;;17.65;11.10;;;;;;;20.04;100.00;96712.16;5027252;28;20072;-56
2021/07/22 02:23:10;;;;;;;14.90;10.90;;;;;;;20.04;100.00;96708.66;5042947;28;20079;-53
2021/07/22 02:25:38;;;;;;;13.95;9.75;;;;;;;19.91;100.00;96710.22;5037442;28;20443;-54
2021/07/22 02:28:07;;;;;;;13.55;8.55;;;;;;;19.59;100.00;96713.50;5039114;28;20071;-54
2021/07/22 02:30:36;;;;;;;17.75;9.30;;;;;;;19.17;100.00;96708.03;5041080;28;20067;-53
2021/07/22 02:33:05;;;;;;;14.68;10.27;;;;;;;19.12;100.00;96709.59;5036741;28;20428;-53
2021/07/22 02:35:33;;;;;;;17.13;10.50;;;;;;;19.68;100.00;96707.84;5035717;28;20075;-53
2021/07/22 02:38:02;;;;;;;16.08;9.20;;;;;;;19.04;100.00;96707.91;5044855;28;20057;-52
2021/07/22 02:40:30;;;;;;;13.90;8.60;;;;;;;19.30;100.00;96711.81;5045246;28;20069;-51
2021/07/22 02:42:59;;;;;;;11.57;8.57;;;;;;;18.98;100.00;96712.16;5039355;28;20077;-52
2021/07/22 02:45:27;;;;;;;14.60;8.25;;;;;;;18.77;100.00;96714.84;5038246;28;20073;-55
2021/07/22 02:47:57;;;;;;;11.13;7.93;;;;;;;19.12;100.00;96706.94;5035286;28;20069;-55
2021/07/22 02:50:25;;;;;;;16.63;8.75;;;;;;;19.12;100.00;96710.44;5043611;28;20526;-52
2021/07/22 02:52:54;;;;;;;16.95;9.60;;;;;;;18.37;100.00;96711.66;5039938;28;20557;-53
2021/07/22 02:55:23;;;;;;;16.65;9.70;;;;;;;18.55;100.00;96713.97;5030147;28;20083;-54
2021/07/22 02:57:51;;;;;;;13.07;9.52;;;;;;;18.53;100.00;96715.97;5041450;28;20053;-51
2021/07/22 03:00:20;;;;;;;14.02;9.15;;;;;;;18.92;100.00;96714.75;5045961;28;20068;-57
2021/07/22 03:02:48;;;;;;;14.82;9.07;;;;;;;18.72;100.00;96715.41;5040376;28;20529;-55
2021/07/22 03:05:19;;;;;;;11.40;7.43;;;;;;;19.25;100.00;96719.59;5038253;28;20072;-54
2021/07/22 03:07:47;;;;;;;11.48;7.70;;;;;;;18.70;100.00;96720.06;5040839;28;20065;-51
2021/07/22 03:10:15;;;;;;;10.40;7.20;;;;;;;19.05;100.00;96730.94;5039164;28;20065;-55
2021/07/22 03:12:44;;;;;;;10.38;6.90;;;;;;;19.20;100.00;96721.00;5036976;28;20083;-52
2021/07/22 03:15:12;;;;;;;9.68;7.18;;;;;;;18.61;100.00;96729.19;5037282;28;20503;-53
2021/07/22 03:17:40;;;;;;;9.57;7.45;;;;;;;18.61;100.00;96723.03;5039467;28;20506;-55
2021/07/22 03:20:10;;;;;;;12.02;7.85;;;;;;;18.59;100.00;96723.25;5036459;28;20080;-50
2021/07/22 03:22:40;;;;;;;10.15;7.32;;;;;;;18.21;100.00;96734.09;5043146;28;20488;-54
2021/07/22 03:25:10;;;;;;;12.57;9.45;;;;;;;18.41;100.00;96736.16;5037371;28;20148;-56
2021/07/22 03:27:38;;;;;;;13.82;10.00;;;;;;;18.58;100.00;96728.75;5039141;28;20064;-55
2021/07/22 03:30:08;;;;;;;19.65;11.60;;;;;;;18.45;100.00;96737.47;5038042;28;20053;-55
2021/07/22 03:32:36;;;;;;;17.98;11.95;;;;;;;18.86;100.00;96734.25;5040224;28;20427;-54
2021/07/22 03:35:05;;;;;;;15.82;11.48;;;;;;;18.89;100.00;96734.69;5043783;28;20080;-53
2021/07/22 03:37:34;;;;;;;20.55;12.82;;;;;;;18.92;100.00;96728.94;5037627;28;20446;-54
2021/07/22 03:40:05;;;;;;;20.60;13.27;;;;;;;18.42;100.00;96732.50;5039802;28;20068;-53
2021/07/22 03:42:35;;;;;;;21.63;14.00;;;;;;;18.24;100.00;96739.06;5019679;28;20067;-58
2021/07/22 03:45:04;;;;;;;19.05;12.82;;;;;;;19.09;100.00;96732.19;5036271;28;20075;-59
2021/07/22 03:47:32;;;;;;;17.67;12.75;;;;;;;19.23;100.00;96733.16;5042886;28;20511;-55
2021/07/22 03:50:02;;;;;;;18.58;11.75;;;;;;;19.01;100.00;96731.50;5024548;28;20164;-53
2021/07/22 03:52:30;;;;;;;15.55;11.27;;;;;;;19.36;100.00;96738.63;5043129;28;20087;-53
2021/07/22 03:54:59;;;;;;;16.92;11.23;;;;;;;19.35;100.00;96733.47;5031962;28;20084;-53
2021/07/22 03:57:28;;;;;;;17.25;11.90;;;;;;;19.27;100.00;96731.75;5043972;28;20056;-53
2021/07/22 03:59:57;;;;;;;18.13;12.05;;;;;;;19.32;100.00;96740.03;5043860;28;20057;-55
2021/07/22 04:02:25;;;;;;;21.38;13.38;;;;;;;19.51;100.00;96735.88;5038101;28;20087;-58
2021/07/22 04:04:53;;;;;;;16.23;11.82;;;;;;;19.94;100.00;96730.44;5037433;28;20088;-55
2021/07/22 04:07:22;;;;;;;15.35;10.23;;;;;;;20.92;100.00;96733.75;5041377;28;20131;-56
2021/07/22 04:09:53;;;;;;;12.60;9.02;;;;;;;20.92;100.00;96731.06;5039545;28;20076;-55
2021/07/22 04:12:21;;;;;;;14.38;9.15;;;;;;;21.64;100.00;96742.06;5036151;28;20075;-57
2021/07/22 04:14:51;;;;;;;12.98;9.25;;;;;;;21.79;100.00;96743.53;5040208;28;20071;-56
2021/07/22 04:17:19;;;;;;;13.32;8.82;;;;;;;22.72;92.64;96735.22;5043572;28;20087;-54
2021/07/22 04:19:48;;;;;;;11.02;7.63;;;;;;;22.48;93.58;96744.81;5039944;28;20064;-54
2021/07/22 04:22:17;;;;;;;14.10;8.30;;;;;;;22.80;89.61;96752.94;5039267;28;20072;-54
2021/07/22 04:24:45;;;;;;;10.30;8.20;;;;;;;22.51;95.17;96741.72;5040168;28;20079;-56
2021/07/22 04:27:14;;;;;;;11.32;7.97;;;;;;;23.18;86.45;96738.69;5033059;28;20457;-55
2021/07/22 04:29:43;;;;;;;13.32;7.40;;;;;;;24.45;74.87;96739.22;5035876;28;20494;-54
2021/07/22 04:32:13;;;;;;;10.82;8.15;;;;;;;23.99;79.13;96750.50;5041587;28;20433;-54
2021/07/22 04:34:41;;;;;;;12.10;8.25;;;;;;;24.38;74.68;96746.53;5035196;28;20077;-52
2021/07/22 04:37:09;;;;;;;13.20;7.70;;;;;;;24.72;71.57;96747.00;5039133;28;20061;-55
2021/07/22 04:39:37;;;;;;;12.32;8.05;;;;;;;24.56;73.83;96753.81;5040827;28;20440;-53
2021/07/22 04:42:06;;;;;;;10.02;8.57;;;;;;;25.19;68.48;96753.44;5035821;28;20057;-51
2021/07/22 04:44:34;;;;;;;14.05;9.35;;;;;;;26.33;62.34;96758.63;5036362;28;20088;-55
2021/07/22 04:47:03;;;;;;;11.85;8.77;;;;;;;26.34;62.20;96749.44;5046341;28;20080;-54
2021/07/22 04:49:33;;;;;;;17.23;8.70;;;;;;;25.42;70.73;96749.97;5043627;28;20076;-54
2021/07/22 04:52:01;;;;;;;15.30;10.57;;;;;;;25.40;72.17;96751.28;5037345;28;20073;-55
2021/07/22 04:54:29;;;;;;;13.65;11.10;;;;;;;23.93;86.27;96752.19;5038473;28;20065;-54
2021/07/22 04:56:58;;;;;;;16.35;11.95;;;;;;;26.12;69.28;96746.53;5034074;28;20080;-54
2021/07/22 04:59:26;;;;;;;15.13;11.43;;;;;;;26.94;64.09;96742.81;5041704;28;20080;-53
2021/07/22 05:01:55;;;;;;;19.88;12.73;;;;;;;25.70;74.50;96743.06;5042181;28;20523;-56
2021/07/22 05:04:23;;;;;;;16.98;13.25;;;;;;;26.67;65.91;96748.81;5038321;28;20064;-54
2021/07/22 05:06:53;;;;;;;17.02;13.27;;;;;;;26.28;67.99;96756.59;5038188;28;20073;-52
2021/07/22 05:09:21;;;;;;;17.50;12.75;;;;;;;26.48;65.19;96744.63;5034328;28;20076;-52
2021/07/22 05:11:49;;;;;;;18.20;13.32;;;;;;;27.12;62.27;96737.25;5041028;28;20071;-53
2021/07/22 05:14:18;;;;;;;16.95;12.20;;;;;;;26.71;64.05;96751.88;5044507;28;20069;-56
2021/07/22 05:16:46;;;;;;;16.33;12.52;;;;;;;26.88;63.86;96741.94;5039057;28;20072;-50
2021/07/22 05:19:15;;;;;;;16.08;12.15;;;;;;;26.71;66.88;96741.03;5040142;28;20073;-55
2021/07/22 05:21:44;;;;;;;16.30;12.00;;;;;;;26.21;67.80;96746.97;5041603;28;20551;-56
2021/07/22 05:24:14;;;;;;;18.27;12.65;;;;;;;25.05;74.68;96746.53;5040646;28;20064;-54
2021/07/22 05:26:42;;;;;;;16.33;12.25;;;;;;;26.72;69.05;96746.19;5036656;28;21135;-57
2021/07/22 05:29:11;;;;;;;18.63;12.20;;;;;;;26.78;65.29;96754.44;5045562;28;20081;-54
2021/07/22 05:31:43;;;;;;;16.98;12.10;;;;;;;26.50;69.12;96745.22;5044997;28;20059;-53
2021/07/22 05:34:11;;;;;;;15.65;11.38;;;;;;;26.39;68.05;96746.84;5038678;28;20057;-53
2021/07/22 05:36:40;;;;;;;14.88;12.07;;;;;;;26.80;65.73;96749.59;5038921;28;20364;-55
2021/07/22 05:39:10;;;;;;;18.23;11.57;;;;;;;26.65;68.50;96747.41;5040584;28;20064;-53
2021/07/22 05:41:39;;;;;;;18.20;12.70;;;;;;;25.67;70.78;96743.53;5046103;28;20111;-56
2021/07/22 05:44:08;;;;;;;16.00;11.30;;;;;;;25.64;74.10;96752.97;5043954;28;20533;-56
2021/07/22 05:46:36;;;;;;;17.08;11.90;;;;;;;26.65;67.81;96748.22;5037942;28;20073;-55
2021/07/22 05:49:06;;;;;;;15.15;11.55;;;;;;;26.64;66.39;96752.00;5041328;28;20583;-52
2021/07/22 05:51:35;;;;;;;;;;;;;;;25.68;79.45;96747.91;5043697;28;20072;-57
2021/07/22 05:54:03;;;;;;;14.00;11.18;;;;;;;26.98;66.67;96750.25;5037335;28;20351;-54
2021/07/22 05:56:31;;;;;;;15.60;12.15;;;;;;;26.49;72.24;96752.50;5034172;28;20096;-55
2021/07/22 05:59:02;;;;;;;17.27;11.98;;;;;;;26.03;78.40;96750.66;5045986;28;20084;-56
2021/07/22 06:01:30;;;;;;;14.70;11.57;;;;;;;26.00;80.97;96753.81;5037851;28;20471;-55
2021/07/22 06:03:59;;;;;;;16.23;12.60;;;;;;;24.71;91.41;96748.88;5041354;28;20069;-53
2021/07/22 06:06:28;;;;;;;18.50;13.13;;;;;;;24.15;100.00;96752.59;5046197;28;20072;-56
2021/07/22 06:08:57;;;;;;;17.70;14.05;;;;;;;24.21;100.00;96754.41;5043512;28;20503;-58
2021/07/22 06:11:25;;;;;;;17.63;13.35;;;;;;;25.65;89.91;96742.97;5036313;28;20081;-56
2021/07/22 06:13:54;;;;;;;19.77;13.10;;;;;;;25.16;90.66;96750.38;5044559;28;20089;-53
2021/07/22 06:16:24;;;;;;;17.13;13.30;;;;;;;24.44;97.13;96759.16;5043517;28;20519;-58
2021/07/22 06:18:52;;;;;;;19.52;13.48;;;;;;;24.44;98.60;96750.25;5036818;28;20079;-57
2021/07/22 06:21:20;;;;;;;16.33;12.68;;;;;;;23.69;100.00;96757.38;5039575;28;20065;-58
2021/07/22 06:23:49;;;;;;;17.65;13.13;;;;;;;24.33;100.00;96758.00;5038797;28;20103;-55
2021/07/22 06:26:17;;;;;;;19.95;13.60;;;;;;;24.99;93.52;96747.47;5037036;28;20077;-55
2021/07/22 06:28:45;;;;;;;18.83;13.48;;;;;;;25.52;86.51;96752.09;5042773;28;20065;-55
2021/07/22 06:31:14;;;;;;;18.17;13.30;;;;;;;24.60;98.83;96760.41;5038086;28;20069;-58
2021/07/22 06:33:43;;;;;;;20.50;13.70;;;;;;;24.55;91.62;96760.28;5043806;28;20476;-54
2021/07/22 06:36:12;;;;;;;19.30;13.50;;;;;;;25.22;89.60;96749.44;5038106;28;20073;-57
2021/07/22 06:38:40;;;;;;;20.40;12.88;;;;;;;25.49;79.69;96742.56;5040440;28;20452;-57
2021/07/22 06:41:11;;;;;;;17.58;13.38;;;;;;;25.98;79.17;96747.81;5043400;28;20080;-57
2021/07/22 06:43:39;;;;;;;18.73;13.27;;;;;;;25.88;82.44;96755.69;5039401;28;20069;-56
2021/07/22 06:46:07;;;;;;;17.15;13.43;;;;;;;26.04;78.10;96754.97;5038832;28;20090;-57
2021/07/22 06:48:37;;;;;;;20.33;13.18;;;;;;;26.67;76.91;96761.50;5032700;28;20088;-56
2021/07/22 06:51:08;;;;;;;18.13;12.88;;;;;;;25.58;86.89;96754.69;5041742;28;20456;-55
2021/07/22 06:53:37;;;;;;;18.40;13.43;;;;;;;26.16;80.86;96758.53;5041412;28;20077;-56
2021/07/22 06:56:06;;;;;;;19.30;13.18;;;;;;;25.26;89.34;96746.06;5034690;28;20081;-57
2021/07/22 06:58:34;;;;;;;20.53;14.10;;;;;;;25.79;79.68;96757.91;5039367;28;20081;-57
2021/07/22 07:01:03;;;;;;;16.02;12.88;;;;;;;25.79;82.97;96757.91;5041277;28;20061;-57
2021/07/22 07:03:31;;;;;;;21.83;14.23;;;;;;;26.08;80.05;96761.56;5037043;28;20068;-57
2021/07/22 07:06:00;;;;;;;21.52;13.88;;;;;;;26.90;71.96;96750.59;5037233;28;20441;-53
2021/07/22 07:08:30;;;;;;;17.75;13.95;;;;;;;25.42;82.97;96751.84;5039125;28;20461;-57
2021/07/22 07:10:58;;;;;;;19.80;13.57;;;;;;;26.15;78.23;96747.94;5046018;28;20092;-57
2021/07/22 07:13:27;;;;;;;20.77;13.45;;;;;;;27.01;70.71;96751.63;5038682;28;20496;-57
2021/07/22 07:15:55;;;;;;;20.35;13.80;;;;;;;26.25;73.79;96751.66;5043195;28;20068;-58
2021/07/22 07:18:23;;;;;;;20.48;13.93;;;;;;;25.71;83.37;96756.38;5037492;28;20094;-58
2021/07/22 07:20:52;;;;;;;21.75;13.75;;;;;;;27.34;70.36;96750.09;5041604;28;20061;-57
2021/07/22 07:23:20;;;;;;;20.20;14.40;;;;;;;26.75;72.69;96753.03;5034418;28;20081;-57
2021/07/22 07:25:50;;;;;;;18.88;13.60;;;;;;;27.52;66.59;96741.72;5040936;28;20485;-55
2021/07/22 07:28:18;;;;;;;20.45;14.40;;;;;;;27.64;64.26;96747.09;5033553;28;20060;-56
2021/07/22 07:30:47;;;;;;;17.25;13.82;;;;;;;26.86;72.38;96743.22;5034472;28;20083;-54
2021/07/22 07:33:15;;;;;;;20.85;14.32;;;;;;;27.05;74.70;96746.53;5040900;28;20069;-57
2021/07/22 07:35:43;;;;;;;19.75;14.95;;;;;;;27.28;73.66;96740.22;5038556;28;20545;-55
2021/07/22 07:38:12;;;;;;;19.35;13.75;;;;;;;27.49;72.25;96741.41;5037667;28;20068;-56
2021/07/22 07:40:40;;;;;;;18.60;13.82;;;;;;;27.18;71.08;96738.16;5038535;28;20061;-55
2021/07/22 07:43:14;;;;;;;17.98;14.40;;;;;;;27.71;74.03;96739.63;5035469;28;20071;-54
2021/07/22 07:45:42;;;;;;;21.30;14.00;;;;;;;27.64;73.55;96734.34;5033668;28;20076;-57
2021/07/22 07:48:11;;;;;;;18.23;13.32;;;;;;;27.55;74.92;96733.13;5036316;28;20088;-58
2021/07/22 07:50:39;;;;;;;22.65;14.60;;;;;;;29.10;64.43;96735.00;5028289;28;20084;-55
2021/07/22 07:53:12;;;;;;;20.48;14.98;;;;;;;28.45;66.99;96736.66;5045519;28;20076;-55
2021/07/22 07:55:40;;;;;;;19.02;13.88;;;;;;;28.94;66.93;96733.16;5040252;28;20510;-55
2021/07/22 07:58:10;;;;;;;21.75;14.95;;;;;;;28.38;71.57;96731.41;5036811;28;20064;-56
2021/07/22 08:00:38;;;;;;;21.55;14.85;;;;;;;28.21;68.08;96736.03;5039081;28;20512;-58
2021/07/22 08:03:16;;;;;;;22.75;14.90;;;;;;;28.02;67.19;96742.81;5045857;22;20080;-46
2021/07/22 08:05:44;;;;;;;18.65;15.07;;;;;;;27.25;72.97;96743.41;5029180;28;20068;-44
2021/07/22 08:08:13;;;;;;;20.83;14.88;;;;;;;27.87;73.19;96733.41;5038737;28;20103;-46
2021/07/22 08:10:41;;;;;;;19.35;14.23;;;;;;;28.39;74.00;96729.53;5036201;28;20068;-45
2021/07/22 08:13:12;;;;;;;18.65;13.50;;;;;;;29.31;63.39;96728.69;5025724;28;20103;-47
2021/07/22 08:15:41;;;;;;;;;;;;;;;28.58;69.33;96730.84;5025402;28;20065;-45
2021/07/22 08:18:10;;;;;;;18.93;13.83;;;;;;;28.38;69.13;96736.00;5016661;28;19951;-45
2021/07/22 08:20:39;;;;;;;18.48;14.45;;;;;;;29.21;61.56;96731.31;5027519;28;20069;-49
2021/07/22 08:23:07;;;;;;;19.45;13.50;;;;;;;29.72;58.07;96736.41;5026751;28;20064;-45
2021/07/22 08:25:36;;;;;;;18.15;13.13;;;;;;;28.38;63.67;96736.84;5017307;28;20071;-51
2021/07/22 08:28:06;;;;;;;18.03;12.77;;;;;;;30.16;55.81;96734.25;5012516;28;20065;-45
2021/07/22 08:30:36;;;;;;;16.17;13.20;;;;;;;28.80;56.63;96741.72;5017551;28;20128;-45
2021/07/22 08:33:05;;;;;;;18.02;13.25;;;;;;;28.75;64.52;96738.13;5027173;28;20072;-46
2021/07/22 08:35:33;;;;;;;18.45;13.50;;;;;;;29.66;60.18;96732.00;5014478;28;20085;-46
2021/07/22 08:38:01;;;;;;;20.10;14.05;;;;;;;29.98;58.99;96738.22;5016989;28;20065;-52
2021/07/22 08:40:30;;;;;;;17.00;13.05;;;;;;;29.04;55.00;96736.00;5027660;28;20072;-48
2021/07/22 08:43:04;;;;;;;18.05;13.63;;;;;;;29.41;59.37;96725.25;5015742;28;20076;-47
2021/07/22 08:45:32;;;;;;;16.40;13.45;;;;;;;30.13;56.85;96731.25;5017351;28;20073;-49
2021/07/22 08:48:03;;;;;;;20.48;13.75;;;;;;;30.42;54.77;96729.81;5031675;28;20076;-46
2021/07/22 08:50:31;;;;;;;;;;;;;;;28.63;58.35;96733.66;5027989;28;20075;-47
2021/07/22 08:52:59;;;;;;;17.45;11.95;;;;;;;30.21;52.46;96728.91;5026113;28;20040;-46
2021/07/22 08:55:28;;;;;;;15.90;12.15;;;;;;;28.69;58.85;96728.25;5020822;28;20065;-49
2021/07/22 08:57:57;;;;;;;18.73;12.85;;;;;;;29.61;57.99;96729.25;5021675;28;20471;-46
2021/07/22 09:00:27;;;;;;;17.65;13.32;;;;;;;29.84;52.67;96726.19;5020743;28;20474;-49
2021/07/22 09:02:57;;;;;;;18.85;13.10;;;;;;;29.23;52.20;96728.34;5026267;28;20072;-46
2021/07/22 09:05:29;;;;;;;16.15;12.27;;;;;;;29.81;51.53;96726.69;5032807;28;20415;-46
2021/07/22 09:07:58;;;;;;;17.13;11.88;;;;;;;28.73;55.24;96727.50;5027628;28;20475;-45
2021/07/22 09:10:26;;;;;;;16.15;12.05;;;;;;;29.79;53.97;96718.78;5020648;28;20061;-46
2021/07/22 09:12:55;;;;;;;18.80;13.45;;;;;;;31.31;50.10;96713.47;5022236;28;20084;-46
2021/07/22 09:15:25;;;;;;;15.82;11.35;;;;;;;30.92;52.65;96722.94;5025494;28;20058;-46
2021/07/22 09:18:22;;;;;;;15.95;12.40;;;;;;;30.24;52.68;96725.63;5023076;28;20068;-46
2021/07/22 09:20:53;;;;;;;16.73;11.80;;;;;;;30.52;51.04;96720.84;5020105;28;20060;-49
2021/07/22 09:23:22;;;;;;;16.65;12.18;;;;;;;29.48;51.11;96716.88;5025412;28;20070;-47
2021/07/22 09:25:52;;;;;;;16.42;11.80;;;;;;;30.58;49.29;96725.25;5020054;28;20065;-46
2021/07/22 09:28:22;;;;;;;16.52;12.48;;;;;;;29.65;51.43;96714.06;5022781;28;20072;-47
2021/07/22 09:30:58;;;;;;;14.95;11.48;;;;;;;31.23;48.29;96720.28;5018264;28;20061;-46
2021/07/22 09:33:34;;;;;;;15.82;11.85;;;;;;;31.72;48.02;96710.78;5025700;28;20069;-47
2021/07/22 09:36:05;;;;;;;15.32;11.82;;;;;;;30.49;48.74;96713.25;5029645;28;20065;-46
2021/07/22 09:38:33;;;;;;;17.33;12.60;;;;;;;30.31;50.28;96716.41;5018958;28;20460;-44
2021/07/22 09:41:01;;;;;;;14.90;11.25;;;;;;;30.24;46.49;96714.75;5023643;28;20085;-49
2021/07/22 09:43:40;;;;;;;16.02;11.50;;;;;;;30.76;46.61;96707.63;5023666;28;20461;-46
2021/07/22 09:46:08;;;;;;;14.38;11.55;;;;;;;31.24;47.16;96699.31;5018962;28;20068;-51
2021/07/22 09:48:38;;;;;;;14.38;11.43;;;;;;;31.72;44.70;96697.97;5017378;28;20065;-50
2021/07/22 09:51:08;;;;;;;16.20;10.90;;;;;;;31.05;46.92;96707.19;5021520;28;20167;-47
2021/07/22 09:53:36;;;;;;;17.38;11.15;;;;;;;30.27;44.85;96697.88;5020731;28;20488;-44
2021/07/22 09:56:05;;;;;;;15.27;10.95;;;;;;;31.51;44.85;96696.34;5026749;28;20080;-47
2021/07/22 09:58:34;;;;;;;13.45;10.48;;;;;;;31.15;42.72;96702.56;5022139;28;20069;-49
2021/07/22 10:01:03;;;;;;;16.83;11.50;;;;;;;30.49;41.71;96703.19;5027853;28;20080;-46
2021/07/22 10:03:33;;;;;;;13.25;10.25;;;;;;;31.63;39.65;96692.28;5022022;28;20069;-52
2021/07/22 10:06:09;;;;;;;15.98;10.88;;;;;;;32.20;41.27;96697.66;5017529;28;20065;-45
2021/07/22 10:08:39;;;;;;;14.80;11.05;;;;;;;32.60;40.34;96685.81;5024097;28;20085;-45
2021/07/22 10:11:08;;;;;;;16.35;10.48;;;;;;;31.46;40.70;96683.56;5017769;28;20069;-43
2021/07/22 10:13:39;;;;;;;14.07;10.50;;;;;;;30.98;39.18;96683.75;5023422;28;20088;-49
2021/07/22 10:16:12;;;;;;;13.82;10.25;;;;;;;30.40;43.04;96687.63;5013700;28;20081;-47
2021/07/22 10:18:45;;;;;;;14.50;10.32;;;;;;;32.29;41.03;96676.88;5027007;28;20084;-47
2021/07/22 10:21:15;;;;;;;13.20;10.40;;;;;;;31.50;38.75;96683.81;5020922;28;20087;-45
2021/07/22 10:23:44;;;;;;;14.35;9.82;;;;;;;31.29;37.97;96683.78;5016902;28;20065;-46
2021/07/22 10:26:12;;;;;;;14.05;10.02;;;;;;;31.60;38.49;96678.38;5023253;28;20550;-44
2021/07/22 10:28:41;;;;;;;15.77;10.93;;;;;;;32.51;38.08;96677.34;5018076;28;20068;-45
2021/07/22 10:31:09;;;;;;;12.32;9.65;;;;;;;31.18;39.70;96676.69;5019449;28;20064;-47
2021/07/22 10:33:40;;;;;;;13.27;9.88;;;;;;;30.47;40.48;96678.13;5022518;28;20080;-45
2021/07/22 10:36:09;;;;;;;12.50;9.98;;;;;;;32.26;39.53;96675.53;5013629;28;20448;-45
2021/07/22 10:38:46;;;;;;;14.30;10.45;;;;;;;30.33;40.20;96676.97;5021187;28;20093;-48
2021/07/22 10:41:35;;;;;;;13.27;10.50;;;;;;;31.58;40.02;96670.44;5025458;28;20069;-45
2021/07/22 10:44:04;;;;;;;12.98;10.25;;;;;;;31.35;38.08;96671.00;5019262;28;20066;-45
2021/07/22 10:46:54;;;;;;;16.40;10.65;;;;;;;31.39;38.32;96672.91;5026047;28;20065;-45
2021/07/22 10:49:37;;;;;;;14.18;10.13;;;;;;;31.48;37.91;96672.38;5010681;28;20061;-45
2021/07/22 10:52:07;;;;;;;13.82;10.13;;;;;;;31.75;37.71;96674.78;5010665;28;20061;-52
2021/07/22 10:54:51;;;;;;;12.07;10.38;;;;;;;31.15;38.35;96669.06;5014728;28;20069;-45
2021/07/22 10:57:38;;;;;;;12.07;10.00;;;;;;;31.75;37.07;96672.88;5018141;28;20104;-45
2021/07/22 11:00:09;;;;;;;13.35;10.32;;;;;;;31.75;37.23;96669.34;5019585;28;20072;-49
2021/07/22 11:02:42;;;;;;;13.15;10.38;;;;;;;31.48;38.56;96669.63;5020797;28;20088;-44
2021/07/22 11:05:11;;;;;;;25.85;10.50;;;;;;;33.16;36.34;96668.28;5017881;28;20088;-49
2021/07/22 11:07:40;;;;;;;13.13;10.10;;;;;;;32.39;37.67;96668.66;5025318;28;20138;-45
2021/07/22 11:10:56;;;;;;;15.45;11.00;;;;;;;32.18;37.52;96664.38;5022796;28;20089;-48
2021/07/22 11:13:45;;;;;;;13.00;10.50;;;;;;;32.34;35.68;96664.00;5026124;28;20115;-46
2021/07/22 11:16:21;;;;;;;13.60;10.50;;;;;;;32.46;37.33;96668.41;5022310;28;20459;-50
2021/07/22 11:18:51;;;;;;;12.10;10.13;;;;;;;32.19;38.10;96658.63;5018214;28;20115;-45
2021/07/22 11:21:20;;;;;;;;;;;;;;;32.74;36.62;96664.97;5012706;28;20077;-45
2021/07/22 11:23:57;;;;;;;14.50;10.70;;;;;;;31.73;35.79;96650.53;5016897;28;19956;-49
2021/07/22 11:26:30;;;;;;;13.15;9.73;;;;;;;32.33;35.70;96658.84;5022292;28;20089;-48
2021/07/22 11:29:16;;;;;;;13.98;10.43;;;;;;;31.43;36.12;96646.75;5014096;28;20081;-46